Terminal Aerodrome Forecast
Issued by NWS

Home | Current Version | Previous Version | Text Only | Print | Product List | Glossary On
Versions: 1 2 3 4 5 6 7 8 9 10 11 12 13 14 15 16 17 18 19 20 21 22 23 24 25 26 27 28 29 30
000
FTUS46 KMTR 231725
TAFSFO
TAF
KSFO 231725Z 2318/2424 VRB03KT P6SM BKN200
     FM232100 32006KT P6SM VCSH FEW060 SCT080 OVC100
     FM240000 29008KT P6SM VCSH FEW060 OVC150
     FM240400 29010KT P6SM SCT015 BKN080
     FM240900 28008KT P6SM BKN012
     FM241100 28006KT 6SM BR OVC010
     FM241700 VRB03KT P6SM FEW010 BKN150
     FM242000 35005KT P6SM FEW010 BKN150=

USA.gov is the U.S. government's official web portal to all federal, state and local government web resources and services.